sensor_id;sensor_type;location;lat;lon;timestamp;pressure;altitude;pressure_sealevel;temperature;humidity
58385;BME280;44185;47.844;8.966;2023-03-15T00:00:34;95658.66;;;2.11;100.00
58385;BME280;44185;47.844;8.966;2023-03-15T00:02:59;95667.78;;;2.18;100.00
58385;BME280;44185;47.844;8.966;2023-03-15T00:05:26;95679.53;;;2.26;100.00
58385;BME280;44185;47.844;8.966;2023-03-15T00:07:52;95677.03;;;2.24;100.00
58385;BME280;44185;47.844;8.966;2023-03-15T00:10:17;95678.22;;;2.18;100.00
58385;BME280;44185;47.844;8.966;2023-03-15T00:12:43;95684.59;;;2.14;100.00
58385;BME280;44185;47.844;8.966;2023-03-15T00:15:09;95683.94;;;2.10;100.00
58385;BME280;44185;47.844;8.966;2023-03-15T00:17:37;95679.28;;;2.01;100.00
58385;BME280;44185;47.844;8.966;2023-03-15T00:20:03;95683.28;;;2.07;100.00
58385;BME280;44185;47.844;8.966;2023-03-15T00:22:29;95691.88;;;2.09;100.00
58385;BME280;44185;47.844;8.966;2023-03-15T00:24:55;95697.72;;;1.98;100.00
58385;BME280;44185;47.844;8.966;2023-03-15T00:27:20;95710.66;;;1.99;100.00
58385;BME280;44185;47.844;8.966;2023-03-15T00:29:46;95696.69;;;1.86;100.00
58385;BME280;44185;47.844;8.966;2023-03-15T00:32:11;95705.00;;;1.93;100.00
58385;BME280;44185;47.844;8.966;2023-03-15T00:34:37;95721.69;;;1.90;100.00
58385;BME280;44185;47.844;8.966;2023-03-15T00:37:02;95722.53;;;1.91;100.00
58385;BME280;44185;47.844;8.966;2023-03-15T00:39:29;95723.72;;;1.85;100.00
58385;BME280;44185;47.844;8.966;2023-03-15T00:41:55;95729.28;;;1.78;100.00
58385;BME280;44185;47.844;8.966;2023-03-15T00:44:20;95733.38;;;1.68;100.00
58385;BME280;44185;47.844;8.966;2023-03-15T00:46:45;95734.69;;;1.75;100.00
58385;BME280;44185;47.844;8.966;2023-03-15T00:49:11;95744.94;;;1.78;100.00
58385;BME280;44185;47.844;8.966;2023-03-15T00:51:36;95747.09;;;1.72;100.00
58385;BME280;44185;47.844;8.966;2023-03-15T00:54:02;95753.16;;;1.72;100.00
58385;BME280;44185;47.844;8.966;2023-03-15T00:56:29;95753.31;;;1.69;100.00
58385;BME280;44185;47.844;8.966;2023-03-15T00:58:54;95763.59;;;1.72;100.00
58385;BME280;44185;47.844;8.966;2023-03-15T01:01:22;95771.31;;;1.74;100.00
58385;BME280;44185;47.844;8.966;2023-03-15T01:03:48;95774.03;;;1.72;100.00
58385;BME280;44185;47.844;8.966;2023-03-15T01:06:15;95784.44;;;1.72;100.00
58385;BME280;44185;47.844;8.966;2023-03-15T01:08:41;95793.38;;;1.68;100.00
58385;BME280;44185;47.844;8.966;2023-03-15T01:11:10;95801.56;;;1.62;100.00
58385;BME280;44185;47.844;8.966;2023-03-15T01:13:37;95807.69;;;1.61;100.00
58385;BME280;44185;47.844;8.966;2023-03-15T01:16:04;95817.72;;;1.52;100.00
58385;BME280;44185;47.844;8.966;2023-03-15T01:18:29;95839.69;;;1.48;100.00
58385;BME280;44185;47.844;8.966;2023-03-15T01:20:55;95858.97;;;1.46;100.00
58385;BME280;44185;47.844;8.966;2023-03-15T01:23:21;95866.25;;;1.39;100.00
58385;BME280;44185;47.844;8.966;2023-03-15T01:25:47;95864.06;;;1.31;100.00
58385;BME280;44185;47.844;8.966;2023-03-15T01:28:12;95872.31;;;1.23;100.00
58385;BME280;44185;47.844;8.966;2023-03-15T01:30:39;95874.66;;;1.28;100.00
58385;BME280;44185;47.844;8.966;2023-03-15T01:33:05;95878.38;;;1.24;100.00
58385;BME280;44185;47.844;8.966;2023-03-15T01:35:30;95875.34;;;1.15;100.00
58385;BME280;44185;47.844;8.966;2023-03-15T01:37:56;95889.47;;;1.11;100.00
58385;BME280;44185;47.844;8.966;2023-03-15T01:40:21;95892.50;;;1.03;100.00
58385;BME280;44185;47.844;8.966;2023-03-15T01:42:52;95900.13;;;1.06;100.00
58385;BME280;44185;47.844;8.966;2023-03-15T01:45:58;95912.25;;;1.07;100.00
58385;BME280;44185;47.844;8.966;2023-03-15T01:48:29;95913.56;;;0.98;100.00
58385;BME280;44185;47.844;8.966;2023-03-15T01:50:58;95923.91;;;1.00;100.00
58385;BME280;44185;47.844;8.966;2023-03-15T01:53:26;95928.53;;;0.95;100.00
58385;BME280;44185;47.844;8.966;2023-03-15T01:55:53;95929.00;;;0.85;99.81
58385;BME280;44185;47.844;8.966;2023-03-15T01:58:19;95935.06;;;0.86;99.61
58385;BME280;44185;47.844;8.966;2023-03-15T02:00:45;95945.72;;;0.81;99.87
58385;BME280;44185;47.844;8.966;2023-03-15T02:03:16;95952.63;;;0.82;99.53
58385;BME280;44185;47.844;8.966;2023-03-15T02:05:45;95953.28;;;0.86;100.00
58385;BME280;44185;47.844;8.966;2023-03-15T02:08:15;95959.25;;;0.88;100.00
58385;BME280;44185;47.844;8.966;2023-03-15T02:10:43;95966.91;;;0.91;100.00
58385;BME280;44185;47.844;8.966;2023-03-15T02:13:10;95973.75;;;0.94;100.00
58385;BME280;44185;47.844;8.966;2023-03-15T02:15:38;95971.81;;;0.97;100.00
58385;BME280;44185;47.844;8.966;2023-03-15T02:18:04;95969.28;;;0.96;100.00
58385;BME280;44185;47.844;8.966;2023-03-15T02:20:37;95977.19;;;0.94;100.00
58385;BME280;44185;47.844;8.966;2023-03-15T02:23:06;95973.44;;;1.00;100.00
58385;BME280;44185;47.844;8.966;2023-03-15T02:25:39;95974.03;;;1.05;100.00
58385;BME280;44185;47.844;8.966;2023-03-15T02:28:10;95970.44;;;1.08;100.00
58385;BME280;44185;47.844;8.966;2023-03-15T02:30:37;95977.94;;;0.96;100.00
58385;BME280;44185;47.844;8.966;2023-03-15T02:33:05;95969.13;;;0.99;100.00
58385;BME280;44185;47.844;8.966;2023-03-15T02:35:32;95970.38;;;0.92;100.00
58385;BME280;44185;47.844;8.966;2023-03-15T02:37:57;95980.31;;;1.01;100.00
58385;BME280;44185;47.844;8.966;2023-03-15T02:40:26;95982.25;;;0.97;100.00
58385;BME280;44185;47.844;8.966;2023-03-15T02:42:54;95984.31;;;0.91;100.00
58385;BME280;44185;47.844;8.966;2023-03-15T02:45:23;95987.91;;;0.88;100.00
58385;BME280;44185;47.844;8.966;2023-03-15T02:47:50;95988.41;;;0.79;100.00
58385;BME280;44185;47.844;8.966;2023-03-15T02:50:16;95996.22;;;0.79;100.00
58385;BME280;44185;47.844;8.966;2023-03-15T02:52:41;96007.25;;;0.84;100.00
58385;BME280;44185;47.844;8.966;2023-03-15T02:55:08;96005.03;;;0.76;100.00
58385;BME280;44185;47.844;8.966;2023-03-15T02:57:34;96007.66;;;0.58;100.00
58385;BME280;44185;47.844;8.966;2023-03-15T03:00:00;96014.38;;;0.62;100.00
58385;BME280;44185;47.844;8.966;2023-03-15T03:02:27;96011.16;;;0.57;100.00
58385;BME280;44185;47.844;8.966;2023-03-15T03:04:52;96008.22;;;0.46;100.00
58385;BME280;44185;47.844;8.966;2023-03-15T03:07:18;96008.94;;;0.12;100.00
58385;BME280;44185;47.844;8.966;2023-03-15T03:09:43;96018.63;;;-0.09;100.00
58385;BME280;44185;47.844;8.966;2023-03-15T03:12:09;96020.50;;;-0.13;100.00
58385;BME280;44185;47.844;8.966;2023-03-15T03:14:35;96033.22;;;-0.26;100.00
58385;BME280;44185;47.844;8.966;2023-03-15T03:17:00;96019.44;;;-0.48;100.00
58385;BME280;44185;47.844;8.966;2023-03-15T03:19:27;96034.91;;;-0.45;100.00
58385;BME280;44185;47.844;8.966;2023-03-15T03:21:53;96040.63;;;-0.36;100.00
58385;BME280;44185;47.844;8.966;2023-03-15T03:24:19;96038.38;;;-0.44;100.00
58385;BME280;44185;47.844;8.966;2023-03-15T03:26:44;96049.09;;;-0.52;100.00
58385;BME280;44185;47.844;8.966;2023-03-15T03:29:10;96056.81;;;-0.50;100.00
58385;BME280;44185;47.844;8.966;2023-03-15T03:31:36;96053.47;;;-0.52;100.00
58385;BME280;44185;47.844;8.966;2023-03-15T03:34:01;96055.38;;;-0.56;100.00
58385;BME280;44185;47.844;8.966;2023-03-15T03:36:29;96066.09;;;-0.64;100.00
58385;BME280;44185;47.844;8.966;2023-03-15T03:38:54;96064.97;;;-0.58;100.00
58385;BME280;44185;47.844;8.966;2023-03-15T03:41:20;96070.78;;;-0.72;100.00
58385;BME280;44185;47.844;8.966;2023-03-15T03:43:45;96083.38;;;-0.63;100.00
58385;BME280;44185;47.844;8.966;2023-03-15T03:46:11;96076.63;;;-0.67;100.00
58385;BME280;44185;47.844;8.966;2023-03-15T03:48:36;96078.72;;;-0.75;100.00
58385;BME280;44185;47.844;8.966;2023-03-15T03:51:01;96077.19;;;-0.60;100.00
58385;BME280;44185;47.844;8.966;2023-03-15T03:53:28;96081.75;;;-0.65;100.00
58385;BME280;44185;47.844;8.966;2023-03-15T03:55:54;96084.09;;;-0.59;100.00
58385;BME280;44185;47.844;8.966;2023-03-15T03:58:20;96089.75;;;-0.70;100.00
58385;BME280;44185;47.844;8.966;2023-03-15T04:00:45;96095.59;;;-0.65;100.00
58385;BME280;44185;47.844;8.966;2023-03-15T04:03:11;96093.53;;;-0.77;100.00
58385;BME280;44185;47.844;8.966;2023-03-15T04:05:36;96095.38;;;-0.60;100.00
58385;BME280;44185;47.844;8.966;2023-03-15T04:08:02;96097.75;;;-0.75;100.00
58385;BME280;44185;47.844;8.966;2023-03-15T04:10:29;96103.53;;;-0.68;100.00
58385;BME280;44185;47.844;8.966;2023-03-15T04:12:56;96117.50;;;-0.71;100.00
58385;BME280;44185;47.844;8.966;2023-03-15T04:15:22;96113.16;;;-0.70;100.00
58385;BME280;44185;47.844;8.966;2023-03-15T04:17:48;96114.38;;;-0.79;100.00
58385;BME280;44185;47.844;8.966;2023-03-15T04:20:13;96121.59;;;-0.86;100.00
58385;BME280;44185;47.844;8.966;2023-03-15T04:22:39;96124.75;;;-0.79;100.00
58385;BME280;44185;47.844;8.966;2023-03-15T04:25:05;96124.75;;;-0.79;100.00
58385;BME280;44185;47.844;8.966;2023-03-15T04:27:32;96129.97;;;-0.79;100.00
58385;BME280;44185;47.844;8.966;2023-03-15T04:29:57;96137.09;;;-0.84;100.00
58385;BME280;44185;47.844;8.966;2023-03-15T04:32:23;96132.03;;;-0.87;100.00
58385;BME280;44185;47.844;8.966;2023-03-15T04:34:49;96136.84;;;-0.99;100.00
58385;BME280;44185;47.844;8.966;2023-03-15T04:37:14;96141.78;;;-0.93;100.00
58385;BME280;44185;47.844;8.966;2023-03-15T04:39:39;96148.41;;;-1.06;100.00
58385;BME280;44185;47.844;8.966;2023-03-15T04:42:05;96154.91;;;-0.96;100.00
58385;BME280;44185;47.844;8.966;2023-03-15T04:44:32;96159.13;;;-0.93;100.00
58385;BME280;44185;47.844;8.966;2023-03-15T04:46:58;96166.84;;;-0.92;100.00
58385;BME280;44185;47.844;8.966;2023-03-15T04:49:23;96165.22;;;-0.94;100.00
58385;BME280;44185;47.844;8.966;2023-03-15T04:51:49;96166.41;;;-0.81;100.00
58385;BME280;44185;47.844;8.966;2023-03-15T04:54:14;96171.81;;;-0.85;100.00
58385;BME280;44185;47.844;8.966;2023-03-15T04:56:39;96171.97;;;-0.90;100.00
58385;BME280;44185;47.844;8.966;2023-03-15T04:59:05;96170.97;;;-0.86;100.00
58385;BME280;44185;47.844;8.966;2023-03-15T05:01:32;96173.34;;;-0.81;100.00
58385;BME280;44185;47.844;8.966;2023-03-15T05:03:57;96180.25;;;-0.80;100.00
58385;BME280;44185;47.844;8.966;2023-03-15T05:06:23;96176.94;;;-0.84;100.00
58385;BME280;44185;47.844;8.966;2023-03-15T05:08:49;96177.91;;;-0.86;100.00
58385;BME280;44185;47.844;8.966;2023-03-15T05:11:14;96187.09;;;-0.77;100.00
58385;BME280;44185;47.844;8.966;2023-03-15T05:13:40;96187.25;;;-0.82;100.00
58385;BME280;44185;47.844;8.966;2023-03-15T05:16:05;96190.31;;;-0.93;100.00
58385;BME280;44185;47.844;8.966;2023-03-15T05:18:32;96191.63;;;-1.05;100.00
58385;BME280;44185;47.844;8.966;2023-03-15T05:20:57;96196.16;;;-1.10;100.00
58385;BME280;44185;47.844;8.966;2023-03-15T05:23:23;96203.00;;;-1.30;100.00
58385;BME280;44185;47.844;8.966;2023-03-15T05:25:49;96205.03;;;-1.16;100.00
58385;BME280;44185;47.844;8.966;2023-03-15T05:28:15;96205.13;;;-1.18;100.00
58385;BME280;44185;47.844;8.966;2023-03-15T05:30:40;96201.50;;;-1.36;100.00
58385;BME280;44185;47.844;8.966;2023-03-15T05:33:06;96204.81;;;-1.57;100.00
58385;BME280;44185;47.844;8.966;2023-03-15T05:35:33;96202.41;;;-1.85;100.00
58385;BME280;44185;47.844;8.966;2023-03-15T05:37:58;96200.00;;;-1.90;100.00
58385;BME280;44185;47.844;8.966;2023-03-15T05:40:23;96202.13;;;-2.02;100.00
58385;BME280;44185;47.844;8.966;2023-03-15T05:42:49;96212.50;;;-2.02;100.00
58385;BME280;44185;47.844;8.966;2023-03-15T05:45:14;96214.22;;;-2.01;100.00
58385;BME280;44185;47.844;8.966;2023-03-15T05:47:40;96207.38;;;-2.03;100.00
58385;BME280;44185;47.844;8.966;2023-03-15T05:50:06;96214.13;;;-1.99;100.00
58385;BME280;44185;47.844;8.966;2023-03-15T05:52:32;96215.78;;;-1.96;100.00
58385;BME280;44185;47.844;8.966;2023-03-15T05:54:58;96222.00;;;-2.01;100.00
58385;BME280;44185;47.844;8.966;2023-03-15T05:57:23;96221.78;;;-1.94;100.00
58385;BME280;44185;47.844;8.966;2023-03-15T05:59:49;96224.78;;;-1.81;100.00
58385;BME280;44185;47.844;8.966;2023-03-15T06:02:16;96214.03;;;-1.72;100.00
58385;BME280;44185;47.844;8.966;2023-03-15T06:04:41;96226.84;;;-1.67;100.00
58385;BME280;44185;47.844;8.966;2023-03-15T06:07:07;96226.72;;;-1.64;100.00
58385;BME280;44185;47.844;8.966;2023-03-15T06:09:34;96231.69;;;-1.58;100.00
58385;BME280;44185;47.844;8.966;2023-03-15T06:11:59;96230.28;;;-1.42;100.00
58385;BME280;44185;47.844;8.966;2023-03-15T06:14:25;96236.91;;;-1.35;100.00
58385;BME280;44185;47.844;8.966;2023-03-15T06:16:51;96232.34;;;-1.28;100.00
58385;BME280;44185;47.844;8.966;2023-03-15T06:19:17;96231.59;;;-1.32;100.00
58385;BME280;44185;47.844;8.966;2023-03-15T06:21:42;96239.22;;;-1.27;100.00
58385;BME280;44185;47.844;8.966;2023-03-15T06:24:08;96246.59;;;-1.39;100.00
58385;BME280;44185;47.844;8.966;2023-03-15T06:26:35;96252.75;;;-1.41;100.00
58385;BME280;44185;47.844;8.966;2023-03-15T06:29:00;96250.53;;;-1.52;100.00
58385;BME280;44185;47.844;8.966;2023-03-15T06:31:26;96252.09;;;-1.48;100.00
58385;BME280;44185;47.844;8.966;2023-03-15T06:33:51;96243.44;;;-1.25;100.00
58385;BME280;44185;47.844;8.966;2023-03-15T06:36:17;96241.59;;;-1.21;100.00
58385;BME280;44185;47.844;8.966;2023-03-15T06:38:42;96242.91;;;-1.10;100.00
58385;BME280;44185;47.844;8.966;2023-03-15T06:41:08;96250.09;;;-0.95;100.00
58385;BME280;44185;47.844;8.966;2023-03-15T06:43:35;96250.72;;;-0.88;100.00
58385;BME280;44185;47.844;8.966;2023-03-15T06:46:00;96251.00;;;-0.73;100.00
58385;BME280;44185;47.844;8.966;2023-03-15T06:48:26;96254.16;;;-0.65;100.00
58385;BME280;44185;47.844;8.966;2023-03-15T06:50:51;96256.56;;;-0.60;100.00
58385;BME280;44185;47.844;8.966;2023-03-15T06:53:17;96253.63;;;-0.52;100.00
58385;BME280;44185;47.844;8.966;2023-03-15T06:55:42;96258.31;;;-0.40;100.00
58385;BME280;44185;47.844;8.966;2023-03-15T06:58:08;96266.53;;;-0.28;100.00
58385;BME280;44185;47.844;8.966;2023-03-15T07:00:35;96273.56;;;-0.30;100.00
58385;BME280;44185;47.844;8.966;2023-03-15T07:03:00;96266.31;;;-0.24;100.00
58385;BME280;44185;47.844;8.966;2023-03-15T07:05:26;96269.97;;;-0.28;100.00
58385;BME280;44185;47.844;8.966;2023-03-15T07:07:51;96265.44;;;-0.23;100.00
58385;BME280;44185;47.844;8.966;2023-03-15T07:10:17;96261.84;;;0.01;100.00
58385;BME280;44185;47.844;8.966;2023-03-15T07:12:42;96261.38;;;0.12;100.00
58385;BME280;44185;47.844;8.966;2023-03-15T07:15:08;96270.59;;;0.19;100.00
58385;BME280;44185;47.844;8.966;2023-03-15T07:17:35;96279.69;;;0.30;100.00
58385;BME280;44185;47.844;8.966;2023-03-15T07:20:01;96281.09;;;0.37;100.00
58385;BME280;44185;47.844;8.966;2023-03-15T07:22:26;96284.56;;;0.38;100.00
58385;BME280;44185;47.844;8.966;2023-03-15T07:24:52;96275.00;;;0.38;100.00
58385;BME280;44185;47.844;8.966;2023-03-15T07:27:17;96280.06;;;0.41;100.00
58385;BME280;44185;47.844;8.966;2023-03-15T07:29:43;96285.50;;;0.37;100.00
58385;BME280;44185;47.844;8.966;2023-03-15T07:32:08;96288.25;;;0.53;100.00
58385;BME280;44185;47.844;8.966;2023-03-15T07:34:35;96285.94;;;0.66;100.00
58385;BME280;44185;47.844;8.966;2023-03-15T07:37:00;96289.19;;;0.71;100.00
58385;BME280;44185;47.844;8.966;2023-03-15T07:39:26;96297.28;;;0.65;100.00
58385;BME280;44185;47.844;8.966;2023-03-15T07:41:51;96294.47;;;0.70;100.00
58385;BME280;44185;47.844;8.966;2023-03-15T07:44:17;96297.91;;;0.70;100.00
58385;BME280;44185;47.844;8.966;2023-03-15T07:46:42;96303.00;;;0.93;100.00
58385;BME280;44185;47.844;8.966;2023-03-15T07:49:08;96300.81;;;1.03;100.00
58385;BME280;44185;47.844;8.966;2023-03-15T07:51:35;96305.97;;;0.85;100.00
58385;BME280;44185;47.844;8.966;2023-03-15T07:54:00;96300.03;;;1.01;100.00
58385;BME280;44185;47.844;8.966;2023-03-15T07:56:26;96299.81;;;1.05;100.00
58385;BME280;44185;47.844;8.966;2023-03-15T07:58:51;96291.91;;;1.07;100.00
58385;BME280;44185;47.844;8.966;2023-03-15T08:01:17;96300.94;;;0.99;98.09
58385;BME280;44185;47.844;8.966;2023-03-15T08:03:42;96305.25;;;1.01;99.13
58385;BME280;44185;47.844;8.966;2023-03-15T08:06:07;96300.09;;;1.18;100.00
58385;BME280;44185;47.844;8.966;2023-03-15T08:08:34;96298.31;;;1.19;97.51
58385;BME280;44185;47.844;8.966;2023-03-15T08:11:00;96297.88;;;1.28;96.99
58385;BME280;44185;47.844;8.966;2023-03-15T08:13:25;96304.13;;;1.43;98.68
58385;BME280;44185;47.844;8.966;2023-03-15T08:15:51;96305.28;;;1.38;96.50
58385;BME280;44185;47.844;8.966;2023-03-15T08:18:16;96305.34;;;1.36;94.48
58385;BME280;44185;47.844;8.966;2023-03-15T08:20:42;96306.69;;;1.63;95.47
58385;BME280;44185;47.844;8.966;2023-03-15T08:23:07;96309.22;;;1.64;95.16
58385;BME280;44185;47.844;8.966;2023-03-15T08:25:35;96301.69;;;1.76;97.99
58385;BME280;44185;47.844;8.966;2023-03-15T08:28:01;96305.91;;;1.78;95.95
58385;BME280;44185;47.844;8.966;2023-03-15T08:30:26;96303.16;;;1.99;97.99
58385;BME280;44185;47.844;8.966;2023-03-15T08:32:52;96290.25;;;2.14;95.83
58385;BME280;44185;47.844;8.966;2023-03-15T08:35:18;96296.19;;;2.00;91.16
58385;BME280;44185;47.844;8.966;2023-03-15T08:37:44;96302.06;;;2.21;92.95
58385;BME280;44185;47.844;8.966;2023-03-15T08:40:11;96301.78;;;2.28;90.07
58385;BME280;44185;47.844;8.966;2023-03-15T08:42:38;96303.28;;;2.32;91.00
58385;BME280;44185;47.844;8.966;2023-03-15T08:45:05;96302.81;;;2.41;90.60
58385;BME280;44185;47.844;8.966;2023-03-15T08:47:31;96311.88;;;2.52;87.81
58385;BME280;44185;47.844;8.966;2023-03-15T08:49:56;96306.72;;;2.50;86.83
58385;BME280;44185;47.844;8.966;2023-03-15T08:52:22;96308.16;;;2.56;88.80
58385;BME280;44185;47.844;8.966;2023-03-15T08:54:47;96314.09;;;2.60;88.76
58385;BME280;44185;47.844;8.966;2023-03-15T08:57:13;96305.03;;;2.65;87.27
58385;BME280;44185;47.844;8.966;2023-03-15T08:59:40;96308.44;;;2.67;87.65
58385;BME280;44185;47.844;8.966;2023-03-15T09:02:06;96309.44;;;2.65;86.93
58385;BME280;44185;47.844;8.966;2023-03-15T09:04:32;96300.22;;;2.58;84.60
58385;BME280;44185;47.844;8.966;2023-03-15T09:06:57;96297.84;;;2.71;85.86
58385;BME280;44185;47.844;8.966;2023-03-15T09:09:23;96298.94;;;2.83;86.59
58385;BME280;44185;47.844;8.966;2023-03-15T09:11:49;96313.34;;;2.90;84.66
58385;BME280;44185;47.844;8.966;2023-03-15T09:14:14;96305.94;;;2.98;85.35
58385;BME280;44185;47.844;8.966;2023-03-15T09:16:41;96312.69;;;2.86;81.32
58385;BME280;44185;47.844;8.966;2023-03-15T09:19:06;96304.41;;;2.78;82.76
58385;BME280;44185;47.844;8.966;2023-03-15T09:21:32;96313.47;;;3.05;85.79
58385;BME280;44185;47.844;8.966;2023-03-15T09:23:58;96310.47;;;2.95;81.53
58385;BME280;44185;47.844;8.966;2023-03-15T09:26:23;96313.31;;;3.08;83.70
58385;BME280;44185;47.844;8.966;2023-03-15T09:28:49;96319.63;;;3.20;82.01
58385;BME280;44185;47.844;8.966;2023-03-15T09:31:14;96313.88;;;3.29;81.65
58385;BME280;44185;47.844;8.966;2023-03-15T09:33:41;96321.97;;;3.41;83.36
58385;BME280;44185;47.844;8.966;2023-03-15T09:36:07;96327.06;;;3.75;85.28
58385;BME280;44185;47.844;8.966;2023-03-15T09:38:32;96322.38;;;3.65;81.27
58385;BME280;44185;47.844;8.966;2023-03-15T09:40:59;96323.13;;;3.67;79.26
58385;BME280;44185;47.844;8.966;2023-03-15T09:43:38;96324.81;;;3.69;80.56
58385;BME280;44185;47.844;8.966;2023-03-15T09:46:17;96319.31;;;3.73;78.52
58385;BME280;44185;47.844;8.966;2023-03-15T09:48:50;96322.56;;;3.93;80.39
58385;BME280;44185;47.844;8.966;2023-03-15T09:51:29;96329.22;;;3.68;77.62
58385;BME280;44185;47.844;8.966;2023-03-15T09:53:59;96323.16;;;3.82;79.46
58385;BME280;44185;47.844;8.966;2023-03-15T09:56:31;96333.16;;;3.75;78.62
58385;BME280;44185;47.844;8.966;2023-03-15T09:58:59;96337.91;;;3.69;74.21
58385;BME280;44185;47.844;8.966;2023-03-15T10:01:29;96327.81;;;3.77;76.38
58385;BME280;44185;47.844;8.966;2023-03-15T10:03:56;96329.63;;;3.76;76.55
58385;BME280;44185;47.844;8.966;2023-03-15T10:06:23;96333.25;;;3.74;77.11
58385;BME280;44185;47.844;8.966;2023-03-15T10:08:54;96330.25;;;3.49;74.60
58385;BME280;44185;47.844;8.966;2023-03-15T10:11:23;96326.59;;;3.52;76.56
58385;BME280;44185;47.844;8.966;2023-03-15T10:13:59;96323.59;;;3.74;73.54
58385;BME280;44185;47.844;8.966;2023-03-15T10:16:38;96313.06;;;4.07;75.22
58385;BME280;44185;47.844;8.966;2023-03-15T10:19:13;96320.38;;;4.16;71.91
58385;BME280;44185;47.844;8.966;2023-03-15T10:21:53;96317.31;;;4.39;71.59
58385;BME280;44185;47.844;8.966;2023-03-15T10:24:27;96312.28;;;4.50;70.75
58385;BME280;44185;47.844;8.966;2023-03-15T10:26:58;96309.75;;;4.63;71.53
58385;BME280;44185;47.844;8.966;2023-03-15T10:29:24;96308.59;;;4.97;71.35
58385;BME280;44185;47.844;8.966;2023-03-15T10:31:51;96312.22;;;5.23;69.70
58385;BME280;44185;47.844;8.966;2023-03-15T10:34:19;96318.50;;;5.36;68.43
58385;BME280;44185;47.844;8.966;2023-03-15T10:36:46;96317.47;;;5.23;68.08
58385;BME280;44185;47.844;8.966;2023-03-15T10:39:13;96317.59;;;5.22;65.84
58385;BME280;44185;47.844;8.966;2023-03-15T10:41:40;96312.00;;;5.41;66.93
58385;BME280;44185;47.844;8.966;2023-03-15T10:44:10;96316.03;;;4.75;65.69
58385;BME280;44185;47.844;8.966;2023-03-15T10:46:36;96310.53;;;4.80;68.03
58385;BME280;44185;47.844;8.966;2023-03-15T10:49:09;96313.50;;;4.74;70.09
58385;BME280;44185;47.844;8.966;2023-03-15T10:51:38;96310.41;;;4.82;65.77
58385;BME280;44185;47.844;8.966;2023-03-15T10:54:06;96311.13;;;5.13;63.68
58385;BME280;44185;47.844;8.966;2023-03-15T10:56:42;96307.59;;;5.42;65.16
58385;BME280;44185;47.844;8.966;2023-03-15T10:59:15;96302.50;;;5.53;64.41
58385;BME280;44185;47.844;8.966;2023-03-15T11:01:41;96299.47;;;5.60;59.54
58385;BME280;44185;47.844;8.966;2023-03-15T11:04:13;96297.16;;;5.68;57.77
58385;BME280;44185;47.844;8.966;2023-03-15T11:06:42;96302.72;;;5.63;58.32
58385;BME280;44185;47.844;8.966;2023-03-15T11:09:09;96297.22;;;6.09;63.24
58385;BME280;44185;47.844;8.966;2023-03-15T11:11:51;96308.91;;;6.31;59.03
58385;BME280;44185;47.844;8.966;2023-03-15T11:14:17;96299.66;;;6.25;57.51
58385;BME280;44185;47.844;8.966;2023-03-15T11:16:46;96299.91;;;5.94;56.52
58385;BME280;44185;47.844;8.966;2023-03-15T11:19:15;96292.59;;;5.85;54.26
58385;BME280;44185;47.844;8.966;2023-03-15T11:21:42;96288.28;;;6.38;58.76
58385;BME280;44185;47.844;8.966;2023-03-15T11:24:19;96295.22;;;6.78;60.30
58385;BME280;44185;47.844;8.966;2023-03-15T11:26:46;96286.63;;;6.63;57.29
58385;BME280;44185;47.844;8.966;2023-03-15T11:29:20;96284.00;;;6.37;55.36
58385;BME280;44185;47.844;8.966;2023-03-15T11:31:46;96289.44;;;6.73;54.90
58385;BME280;44185;47.844;8.966;2023-03-15T11:34:14;96277.75;;;6.77;53.60
58385;BME280;44185;47.844;8.966;2023-03-15T11:36:43;96274.06;;;6.66;55.96
58385;BME280;44185;47.844;8.966;2023-03-15T11:39:12;96268.00;;;6.66;55.61
58385;BME280;44185;47.844;8.966;2023-03-15T11:41:42;96274.50;;;6.73;56.81
58385;BME280;44185;47.844;8.966;2023-03-15T11:44:14;96272.47;;;6.77;55.42
58385;BME280;44185;47.844;8.966;2023-03-15T11:46:46;96269.47;;;6.70;57.30
58385;BME280;44185;47.844;8.966;2023-03-15T11:49:16;96273.94;;;6.94;57.15
58385;BME280;44185;47.844;8.966;2023-03-15T11:51:43;96264.91;;;7.23;54.78
58385;BME280;44185;47.844;8.966;2023-03-15T11:54:12;96268.91;;;7.53;56.21
58385;BME280;44185;47.844;8.966;2023-03-15T11:56:51;96259.00;;;7.19;53.94
58385;BME280;44185;47.844;8.966;2023-03-15T11:59:20;96261.97;;;7.15;53.64
58385;BME280;44185;47.844;8.966;2023-03-15T12:01:50;96258.91;;;6.83;51.53
58385;BME280;44185;47.844;8.966;2023-03-15T12:04:37;96254.53;;;6.58;51.54
58385;BME280;44185;47.844;8.966;2023-03-15T12:07:04;96258.13;;;6.43;52.87
58385;BME280;44185;47.844;8.966;2023-03-15T12:09:46;96248.75;;;6.65;55.33
58385;BME280;44185;47.844;8.966;2023-03-15T12:12:34;96250.34;;;6.29;52.59
58385;BME280;44185;47.844;8.966;2023-03-15T12:15:04;96250.03;;;6.07;52.26
58385;BME280;44185;47.844;8.966;2023-03-15T12:17:42;96245.38;;;6.11;54.78
58385;BME280;44185;47.844;8.966;2023-03-15T12:20:17;96241.19;;;6.34;57.27
58385;BME280;44185;47.844;8.966;2023-03-15T12:22:49;96234.50;;;6.81;51.29
58385;BME280;44185;47.844;8.966;2023-03-15T12:25:18;96242.94;;;7.36;51.38
58385;BME280;44185;47.844;8.966;2023-03-15T12:27:46;96237.25;;;7.78;49.54
58385;BME280;44185;47.844;8.966;2023-03-15T12:30:20;96237.72;;;7.72;48.41
58385;BME280;44185;47.844;8.966;2023-03-15T12:32:49;96234.91;;;7.50;48.04
58385;BME280;44185;47.844;8.966;2023-03-15T12:35:18;96228.94;;;7.60;48.31
58385;BME280;44185;47.844;8.966;2023-03-15T12:37:48;96236.19;;;7.81;47.72
58385;BME280;44185;47.844;8.966;2023-03-15T12:40:37;96230.06;;;8.16;47.25
58385;BME280;44185;47.844;8.966;2023-03-15T12:43:04;96225.84;;;8.14;46.01
58385;BME280;44185;47.844;8.966;2023-03-15T12:45:48;96229.22;;;7.68;45.86
58385;BME280;44185;47.844;8.966;2023-03-15T12:48:24;96217.72;;;8.40;47.81
58385;BME280;44185;47.844;8.966;2023-03-15T12:51:09;96221.91;;;8.31;45.17
58385;BME280;44185;47.844;8.966;2023-03-15T12:53:48;96223.38;;;8.35;45.44
58385;BME280;44185;47.844;8.966;2023-03-15T12:56:28;96217.63;;;8.53;46.90
58385;BME280;44185;47.844;8.966;2023-03-15T12:58:59;96224.88;;;8.03;46.36
58385;BME280;44185;47.844;8.966;2023-03-15T13:01:30;96226.63;;;7.79;46.76